createdAt,value
2022-08-25T00:01:46.199Z,4.53
2022-08-25T00:04:16.184Z,4.18
2022-08-25T00:06:46.001Z,4.43
2022-08-25T00:09:17.601Z,4.13
2022-08-25T00:11:45.244Z,3.90
2022-08-25T00:14:15.923Z,4.35
2022-08-25T00:16:43.461Z,4.35
2022-08-25T00:19:20.535Z,4.15
2022-08-25T00:21:47.666Z,4.45
2022-08-25T00:24:17.214Z,4.15
2022-08-25T00:26:49.264Z,4.38
2022-08-25T00:29:16.761Z,3.63
2022-08-25T00:31:44.428Z,4.00
2022-08-25T00:34:19.041Z,4.22
2022-08-25T00:36:47.195Z,5.00
2022-08-25T00:39:14.333Z,4.50
2022-08-25T00:41:43.253Z,5.68
2022-08-25T00:44:13.030Z,4.20
2022-08-25T00:46:49.454Z,4.30
2022-08-25T00:49:25.342Z,4.95
2022-08-25T00:51:59.097Z,5.03
2022-08-25T00:54:31.452Z,5.20
2022-08-25T00:57:00.090Z,5.15
2022-08-25T00:59:27.827Z,4.03
2022-08-25T01:01:56.095Z,4.70
2022-08-25T01:04:23.821Z,3.60
2022-08-25T01:06:50.809Z,4.43
2022-08-25T01:09:19.302Z,4.60
2022-08-25T01:11:47.308Z,4.45
2022-08-25T01:14:18.401Z,4.05
2022-08-25T01:16:45.678Z,4.63
2022-08-25T01:19:16.042Z,4.00
2022-08-25T01:21:48.083Z,4.50
2022-08-25T01:24:39.726Z,4.47
2022-08-25T01:27:07.641Z,4.60
2022-08-25T01:29:36.070Z,4.53
2022-08-25T01:32:06.855Z,4.20
2022-08-25T01:34:36.380Z,3.97
2022-08-25T01:37:04.077Z,4.80
2022-08-25T01:39:34.164Z,4.80
2022-08-25T01:42:17.925Z,4.25
2022-08-25T01:44:46.174Z,4.05
2022-08-25T01:47:14.438Z,4.75
2022-08-25T01:49:41.314Z,5.05
2022-08-25T01:52:16.171Z,3.70
2022-08-25T01:54:43.121Z,4.38
2022-08-25T01:57:09.969Z,3.97
2022-08-25T01:59:36.944Z,4.40
2022-08-25T02:02:04.865Z,3.70
2022-08-25T02:04:32.680Z,4.18
2022-08-25T02:07:04.169Z,4.25
2022-08-25T02:09:31.587Z,4.22
2022-08-25T02:11:59.247Z,5.10
2022-08-25T02:14:26.284Z,3.80
2022-08-25T02:16:54.374Z,4.85
2022-08-25T02:19:24.393Z,4.70
2022-08-25T02:21:51.616Z,4.05
2022-08-25T02:24:18.889Z,4.88
2022-08-25T02:26:45.900Z,5.45
2022-08-25T02:29:12.817Z,3.78
2022-08-25T02:31:40.525Z,4.43
2022-08-25T02:34:08.958Z,4.50
2022-08-25T02:36:37.408Z,4.32
2022-08-25T02:39:06.702Z,4.40
2022-08-25T02:41:34.076Z,4.30
2022-08-25T02:44:02.656Z,4.25
2022-08-25T02:46:29.807Z,4.55
2022-08-25T02:48:57.153Z,4.20
2022-08-25T02:51:25.546Z,4.32
2022-08-25T02:53:52.362Z,4.53
2022-08-25T02:56:19.997Z,5.82
2022-08-25T02:58:47.668Z,4.75
2022-08-25T03:01:15.664Z,5.03
2022-08-25T03:03:44.898Z,4.65
2022-08-25T03:06:19.963Z,5.07
2022-08-25T03:08:47.119Z,4.68
2022-08-25T03:11:13.964Z,4.63
2022-08-25T03:13:41.000Z,4.57
2022-08-25T03:16:11.006Z,4.35
2022-08-25T03:18:39.994Z,4.50
2022-08-25T03:21:07.236Z,4.05
2022-08-25T03:23:34.479Z,4.35
2022-08-25T03:26:19.917Z,4.30
2022-08-25T03:28:46.862Z,5.05
2022-08-25T03:31:13.802Z,4.90
2022-08-25T03:33:40.972Z,4.40
2022-08-25T03:36:09.015Z,4.47
2022-08-25T03:38:38.305Z,4.95
2022-08-25T03:41:16.388Z,4.90
2022-08-25T03:43:43.571Z,4.78
2022-08-25T03:46:16.771Z,4.70
2022-08-25T03:48:43.635Z,4.70
2022-08-25T03:51:10.498Z,5.15
2022-08-25T03:53:37.590Z,5.60
2022-08-25T03:56:04.477Z,4.70
2022-08-25T03:58:31.298Z,5.30
2022-08-25T04:01:00.549Z,5.38
2022-08-25T04:03:27.442Z,4.30
2022-08-25T04:05:54.294Z,4.82
2022-08-25T04:08:23.257Z,5.15
2022-08-25T04:10:50.153Z,5.10
2022-08-25T04:13:18.652Z,4.53
2022-08-25T04:15:45.529Z,4.85
2022-08-25T04:18:13.303Z,4.40
2022-08-25T04:20:46.405Z,4.93
2022-08-25T04:23:13.625Z,4.63
2022-08-25T04:25:46.264Z,5.80
2022-08-25T04:28:13.235Z,4.75
2022-08-25T04:30:42.850Z,5.63
2022-08-25T04:33:09.691Z,4.72
2022-08-25T04:35:36.553Z,4.93
2022-08-25T04:38:05.378Z,4.80
2022-08-25T04:40:32.343Z,5.20
2022-08-25T04:42:59.768Z,6.07
2022-08-25T04:45:26.736Z,5.40
2022-08-25T04:47:55.123Z,6.10
2022-08-25T04:50:22.040Z,4.85
2022-08-25T04:52:49.519Z,5.15
2022-08-25T04:55:16.444Z,5.13
2022-08-25T04:57:43.417Z,5.32
2022-08-25T05:00:11.174Z,5.22
2022-08-25T05:02:38.015Z,4.50
2022-08-25T05:05:06.559Z,5.32
2022-08-25T05:07:33.643Z,4.20
2022-08-25T05:10:00.458Z,4.45
2022-08-25T05:12:27.311Z,5.07
2022-08-25T05:14:56.044Z,4.07
2022-08-25T05:17:22.799Z,4.40
2022-08-25T05:19:49.585Z,4.53
2022-08-25T05:22:16.392Z,4.25
2022-08-25T05:24:43.247Z,4.13
2022-08-25T05:27:10.333Z,4.65
2022-08-25T05:29:37.132Z,4.75
2022-08-25T05:32:04.240Z,4.57
2022-08-25T05:34:31.199Z,4.40
2022-08-25T05:37:00.191Z,4.68
2022-08-25T05:39:27.231Z,4.18
2022-08-25T05:41:54.193Z,4.57
2022-08-25T05:44:21.574Z,4.28
2022-08-25T05:46:48.641Z,4.78
2022-08-25T05:49:15.462Z,4.50
2022-08-25T05:51:42.348Z,4.50
2022-08-25T05:54:09.156Z,4.35
2022-08-25T05:56:36.089Z,4.88
2022-08-25T05:59:07.310Z,4.65
2022-08-25T06:01:54.726Z,5.03
2022-08-25T06:04:22.646Z,4.70
2022-08-25T06:06:53.378Z,4.32
2022-08-25T06:09:20.740Z,4.40
2022-08-25T06:11:52.836Z,4.80
2022-08-25T06:14:21.452Z,5.25
2022-08-25T06:16:51.482Z,4.72
2022-08-25T06:19:18.321Z,4.88
2022-08-25T06:21:45.101Z,4.65
2022-08-25T06:24:15.372Z,6.00
2022-08-25T06:26:43.954Z,5.20
2022-08-25T06:29:10.830Z,4.97
2022-08-25T06:31:37.800Z,4.90
2022-08-25T06:34:04.751Z,4.65
2022-08-25T06:36:31.901Z,4.80
2022-08-25T06:38:58.712Z,4.72
2022-08-25T06:41:25.660Z,4.35
2022-08-25T06:44:05.279Z,5.43
2022-08-25T06:46:35.828Z,5.05
2022-08-25T06:49:04.919Z,5.45
2022-08-25T06:51:31.801Z,4.78
2022-08-25T06:53:58.696Z,5.53
2022-08-25T06:56:25.870Z,5.38
2022-08-25T06:58:53.587Z,4.68
2022-08-25T07:01:26.303Z,5.47
2022-08-25T07:03:59.566Z,4.57
2022-08-25T07:06:28.275Z,5.28
2022-08-25T07:08:55.383Z,5.38
2022-08-25T07:11:22.527Z,5.43
2022-08-25T07:13:50.722Z,5.90
2022-08-25T07:16:20.263Z,5.25
2022-08-25T07:18:47.947Z,6.47
2022-08-25T07:21:15.154Z,5.20
2022-08-25T07:23:43.186Z,5.70
2022-08-25T07:29:32.547Z,5.22
2022-08-25T07:32:01.420Z,5.88
2022-08-25T07:34:51.892Z,5.60
2022-08-25T07:37:45.445Z,5.60
2022-08-25T07:40:10.565Z,6.13
2022-08-25T07:42:37.919Z,5.70
2022-08-25T07:45:07.363Z,5.78
2022-08-25T07:47:34.726Z,5.40
2022-08-25T07:50:01.861Z,5.10
2022-08-25T07:52:28.682Z,5.57
2022-08-25T07:54:55.590Z,5.22
2022-08-25T07:57:24.713Z,4.85
2022-08-25T07:59:51.760Z,5.30
2022-08-25T08:02:19.501Z,5.60
2022-08-25T08:04:51.491Z,5.43
2022-08-25T08:07:25.802Z,5.43
2022-08-25T08:10:47.901Z,4.22
2022-08-25T08:12:58.040Z,4.82
2022-08-25T08:15:25.064Z,5.15
2022-08-25T08:17:56.428Z,4.60
2022-08-25T08:20:25.625Z,4.80
2022-08-25T08:22:52.461Z,4.63
2022-08-25T08:25:21.534Z,4.78
2022-08-25T08:30:26.191Z,4.95
2022-08-25T08:33:11.746Z,4.70
2022-08-25T08:35:41.685Z,4.50
2022-08-25T08:38:14.821Z,4.65
2022-08-25T08:41:26.053Z,4.70
2022-08-25T08:44:07.888Z,5.05
2022-08-25T08:46:47.034Z,4.13
2022-08-25T08:49:38.925Z,4.60
2022-08-25T08:52:07.567Z,4.47
2022-08-25T08:54:38.404Z,4.25
2022-08-25T08:57:23.279Z,4.45
2022-08-25T09:00:05.992Z,4.53
2022-08-25T09:02:51.876Z,4.45
2022-08-25T09:05:22.013Z,4.05
2022-08-25T09:08:05.570Z,4.57
2022-08-25T09:11:11.461Z,4.45
2022-08-25T09:14:04.457Z,3.60
2022-08-25T09:16:50.208Z,3.83
2022-08-25T09:19:35.582Z,3.25
2022-08-25T09:22:33.477Z,4.28
2022-08-25T09:25:22.104Z,3.72
2022-08-25T09:28:21.078Z,3.47
2022-08-25T09:31:04.585Z,4.15
2022-08-25T09:33:35.714Z,3.50
2022-08-25T09:36:06.332Z,3.20
2022-08-25T09:38:35.637Z,3.90
2022-08-25T09:41:03.719Z,2.95
2022-08-25T09:43:36.859Z,3.25
2022-08-25T09:46:27.797Z,3.85
2022-08-25T09:48:57.560Z,3.10
2022-08-25T09:51:29.400Z,3.10
2022-08-25T09:54:14.322Z,2.65
2022-08-25T09:56:54.816Z,2.92
2022-08-25T09:59:34.180Z,2.40
2022-08-25T10:02:24.056Z,3.00
2022-08-25T10:04:53.533Z,2.70
2022-08-25T10:07:26.639Z,2.42
2022-08-25T10:10:02.155Z,2.60
2022-08-25T10:12:44.490Z,2.00
2022-08-25T10:15:29.539Z,3.10
2022-08-25T10:18:27.631Z,2.22
2022-08-25T10:21:14.786Z,1.80
2022-08-25T10:23:55.991Z,2.00
2022-08-25T10:26:41.387Z,1.85
2022-08-25T10:31:49.175Z,2.05
2022-08-25T10:34:23.165Z,1.60
2022-08-25T10:36:57.664Z,2.25
2022-08-25T10:39:44.614Z,1.83
2022-08-25T10:42:27.203Z,2.20
2022-08-25T10:45:32.406Z,2.13
2022-08-25T10:48:22.375Z,2.13
2022-08-25T10:51:23.633Z,1.80
2022-08-25T10:54:10.512Z,2.33
2022-08-25T10:56:53.623Z,1.63
2022-08-25T10:59:34.652Z,1.90
2022-08-25T11:02:32.198Z,1.55
2022-08-25T11:05:10.682Z,1.88
2022-08-25T11:07:45.835Z,1.40
2022-08-25T11:10:19.584Z,1.65
2022-08-25T11:12:59.361Z,1.95
2022-08-25T11:15:36.607Z,1.75
2022-08-25T11:18:13.952Z,2.05
2022-08-25T11:21:16.744Z,1.63
2022-08-25T11:24:09.148Z,1.60
2022-08-25T11:26:38.023Z,1.77
2022-08-25T11:29:16.464Z,1.67
2022-08-25T11:31:53.984Z,2.28
2022-08-25T11:34:22.421Z,1.88
2022-08-25T11:37:01.124Z,1.77
2022-08-25T11:40:00.257Z,1.50
2022-08-25T11:42:49.277Z,2.97
2022-08-25T11:45:40.366Z,2.13
2022-08-25T11:48:10.361Z,2.03
2022-08-25T11:51:01.596Z,1.77
2022-08-25T11:53:37.967Z,2.28
2022-08-25T11:56:12.608Z,2.10
2022-08-25T11:58:53.816Z,1.80
2022-08-25T12:01:39.437Z,2.00
2022-08-25T12:04:13.412Z,2.20
2022-08-25T12:07:06.951Z,2.20
2022-08-25T12:09:54.615Z,2.17
2022-08-25T12:12:36.657Z,2.50
2022-08-25T12:15:23.600Z,2.53
2022-08-25T12:18:40.088Z,2.45
2022-08-25T12:21:15.351Z,2.78
2022-08-25T12:24:08.807Z,2.72
2022-08-25T12:26:39.397Z,3.00
2022-08-25T12:29:35.370Z,3.00
2022-08-25T12:32:19.178Z,2.90
2022-08-25T12:35:13.710Z,2.35
2022-08-25T12:38:09.064Z,2.83
2022-08-25T12:41:02.557Z,2.30
2022-08-25T12:43:37.694Z,2.70
2022-08-25T12:46:20.395Z,2.20
2022-08-25T12:49:00.767Z,2.38
2022-08-25T12:51:35.349Z,2.83
2022-08-25T12:54:41.029Z,2.65
2022-08-25T12:57:41.230Z,2.40
2022-08-25T13:00:21.283Z,2.60
2022-08-25T13:03:07.363Z,2.95
2022-08-25T13:05:59.079Z,2.30
2022-08-25T13:08:33.714Z,2.60
2022-08-25T13:13:48.052Z,2.75
2022-08-25T13:16:29.806Z,2.67
2022-08-25T13:18:59.386Z,2.40
2022-08-25T13:21:41.719Z,2.50
2022-08-25T13:24:28.052Z,2.67
2022-08-25T13:26:57.867Z,2.50
2022-08-25T13:29:29.873Z,2.28
2022-08-25T13:32:09.290Z,2.63
2022-08-25T13:34:42.821Z,2.70
2022-08-25T13:37:30.435Z,2.53
2022-08-25T13:40:18.009Z,2.67
2022-08-25T13:42:53.025Z,2.85
2022-08-25T13:45:25.513Z,3.03
2022-08-25T13:47:55.823Z,2.50
2022-08-25T13:50:26.433Z,2.70
2022-08-25T13:53:07.178Z,2.90
2022-08-25T13:55:52.225Z,2.43
2022-08-25T13:58:44.235Z,2.30
2022-08-25T14:01:48.274Z,2.75
2022-08-25T14:04:28.000Z,2.50
2022-08-25T14:09:49.052Z,3.67
2022-08-25T14:12:37.133Z,2.40
2022-08-25T14:15:21.995Z,2.60
2022-08-25T14:18:14.062Z,2.80
2022-08-25T14:20:47.255Z,2.88
2022-08-25T14:23:19.276Z,2.50
2022-08-25T14:25:46.950Z,2.60
2022-08-25T14:28:18.823Z,2.45
2022-08-25T14:30:58.957Z,3.08
2022-08-25T14:33:38.299Z,2.25
2022-08-25T14:36:06.129Z,2.47
2022-08-25T14:38:35.223Z,2.45
2022-08-25T14:41:02.184Z,2.35
2022-08-25T14:43:31.362Z,2.80
2022-08-25T14:45:59.917Z,2.70
2022-08-25T14:48:31.871Z,3.13
2022-08-25T14:51:00.351Z,2.90
2022-08-25T14:53:28.627Z,2.80
2022-08-25T14:55:59.351Z,3.00
2022-08-25T14:58:27.121Z,2.47
2022-08-25T15:00:54.714Z,2.50
2022-08-25T15:03:36.078Z,2.28
2022-08-25T15:06:03.855Z,3.03
2022-08-25T15:08:50.149Z,2.72
2022-08-25T15:11:17.316Z,2.95
2022-08-25T15:13:49.229Z,3.03
2022-08-25T15:16:23.682Z,3.22
2022-08-25T15:19:01.465Z,2.83
2022-08-25T15:21:33.465Z,2.70
2022-08-25T15:24:00.578Z,2.50
2022-08-25T15:26:27.589Z,2.60
2022-08-25T15:28:54.649Z,2.33
2022-08-25T15:31:23.591Z,3.08
2022-08-25T15:33:51.431Z,3.20
2022-08-25T15:36:24.534Z,2.60
2022-08-25T15:38:52.633Z,2.60
2022-08-25T15:41:20.988Z,2.40
2022-08-25T15:43:51.651Z,2.83
2022-08-25T15:46:21.646Z,2.70
2022-08-25T15:48:48.548Z,2.30
2022-08-25T15:51:16.402Z,2.70
2022-08-25T15:53:43.838Z,2.40
2022-08-25T15:56:16.045Z,2.45
2022-08-25T15:58:55.481Z,3.13
2022-08-25T16:01:25.175Z,2.55
2022-08-25T16:03:52.842Z,2.78
2022-08-25T16:06:20.210Z,2.83
2022-08-25T16:08:47.635Z,2.88
2022-08-25T16:11:26.552Z,2.55
2022-08-25T16:13:55.502Z,2.92
2022-08-25T16:16:24.645Z,3.08
2022-08-25T16:18:52.639Z,2.70
2022-08-25T16:21:29.156Z,2.65
2022-08-25T16:24:01.904Z,3.00
2022-08-25T16:26:31.270Z,2.70
2022-08-25T16:28:58.456Z,3.25
2022-08-25T16:31:26.122Z,3.03
2022-08-25T16:33:56.048Z,3.67
2022-08-25T16:36:27.105Z,3.10
2022-08-25T16:38:56.978Z,2.78
2022-08-25T16:41:27.088Z,2.85
2022-08-25T16:43:54.492Z,3.22
2022-08-25T16:46:23.973Z,3.47
2022-08-25T16:48:51.011Z,3.55
2022-08-25T16:51:22.496Z,3.83
2022-08-25T16:54:10.867Z,3.90
2022-08-25T16:56:38.648Z,3.78
2022-08-25T16:59:06.649Z,3.65
2022-08-25T17:01:35.420Z,3.42
2022-08-25T17:04:03.862Z,3.47
2022-08-25T17:06:35.765Z,3.55
2022-08-25T17:09:03.819Z,3.83
2022-08-25T17:11:35.065Z,3.90
2022-08-25T17:14:04.642Z,3.10
2022-08-25T17:16:38.359Z,3.50
2022-08-25T17:19:08.211Z,3.63
2022-08-25T17:21:44.919Z,3.60
2022-08-25T17:24:13.257Z,3.53
2022-08-25T17:26:41.967Z,3.58
2022-08-25T17:29:09.577Z,3.42
2022-08-25T17:31:39.730Z,4.20
2022-08-25T17:34:10.435Z,4.00
2022-08-25T17:36:37.891Z,3.92
2022-08-25T17:39:08.972Z,4.78
2022-08-25T17:41:37.817Z,4.47
2022-08-25T17:44:05.395Z,3.88
2022-08-25T17:46:32.710Z,4.47
2022-08-25T17:48:59.535Z,4.63
2022-08-25T17:51:26.450Z,4.25
2022-08-25T17:53:57.181Z,3.97
2022-08-25T17:56:27.276Z,4.03
2022-08-25T17:58:58.112Z,4.40
2022-08-25T18:01:33.394Z,4.05
2022-08-25T18:04:00.944Z,4.10
2022-08-25T18:06:31.029Z,4.70
2022-08-25T18:09:00.128Z,4.15
2022-08-25T18:11:28.855Z,3.75
2022-08-25T18:13:57.254Z,4.88
2022-08-25T18:16:24.804Z,4.78
2022-08-25T18:18:52.786Z,4.20
2022-08-25T18:21:22.470Z,4.45
2022-08-25T18:23:49.654Z,4.45
2022-08-25T18:26:17.259Z,4.57
2022-08-25T18:28:48.927Z,4.53
2022-08-25T18:31:16.072Z,4.63
2022-08-25T18:33:47.334Z,5.05
2022-08-25T18:36:18.468Z,4.75
2022-08-25T18:39:04.471Z,4.63
2022-08-25T18:44:03.047Z,5.10
2022-08-25T18:46:30.126Z,5.07
2022-08-25T18:48:57.063Z,5.15
2022-08-25T18:51:24.022Z,5.13
2022-08-25T18:53:54.673Z,4.95
2022-08-25T18:56:26.209Z,5.45
2022-08-25T18:58:53.222Z,6.13
2022-08-25T19:01:20.772Z,5.60
2022-08-25T19:03:48.723Z,5.50
2022-08-25T19:06:16.793Z,6.30
2022-08-25T19:08:45.261Z,5.93
2022-08-25T19:11:12.851Z,6.45
2022-08-25T19:13:41.696Z,6.72
2022-08-25T19:16:17.774Z,6.93
2022-08-25T19:18:47.717Z,6.40
2022-08-25T19:21:14.818Z,6.40
2022-08-25T19:23:41.956Z,7.03
2022-08-25T19:26:16.867Z,6.45
2022-08-25T19:28:48.833Z,6.10
2022-08-25T19:31:21.072Z,6.20
2022-08-25T19:33:53.310Z,6.88
2022-08-25T19:36:28.027Z,7.05
2022-08-25T19:38:58.702Z,7.28
2022-08-25T19:41:27.962Z,7.15
2022-08-25T19:43:57.660Z,6.40
2022-08-25T19:46:33.261Z,6.45
2022-08-25T19:49:08.815Z,6.30
2022-08-25T19:51:44.100Z,7.35
2022-08-25T19:54:16.808Z,6.30
2022-08-25T19:56:54.320Z,6.38
2022-08-25T19:59:42.269Z,6.43
2022-08-25T20:02:15.393Z,6.05
2022-08-25T20:04:47.955Z,6.28
2022-08-25T20:07:18.752Z,6.50
2022-08-25T20:09:45.768Z,6.40
2022-08-25T20:14:46.863Z,6.10
2022-08-25T20:17:23.532Z,6.00
2022-08-25T20:19:52.552Z,6.70
2022-08-25T20:22:22.513Z,6.25
2022-08-25T20:24:56.154Z,6.72
2022-08-25T20:27:27.892Z,6.00
2022-08-25T20:29:54.788Z,5.93
2022-08-25T20:32:22.681Z,6.57
2022-08-25T20:34:50.403Z,6.43
2022-08-25T20:37:18.684Z,6.22
2022-08-25T20:39:46.416Z,5.95
2022-08-25T20:42:13.979Z,6.75
2022-08-25T20:44:42.241Z,6.75
2022-08-25T20:47:10.465Z,6.90
2022-08-25T20:49:39.571Z,6.72
2022-08-25T20:52:07.607Z,7.03
2022-08-25T20:54:34.546Z,7.28
2022-08-25T20:57:02.514Z,6.00
2022-08-25T20:59:29.874Z,7.13
2022-08-25T21:01:57.070Z,6.45
2022-08-25T21:04:27.274Z,6.65
2022-08-25T21:06:54.191Z,6.18
2022-08-25T21:09:24.188Z,6.78
2022-08-25T21:11:53.729Z,6.60
2022-08-25T21:14:21.631Z,6.97
2022-08-25T21:16:49.181Z,6.93
2022-08-25T21:19:26.638Z,6.20
2022-08-25T21:21:59.664Z,6.70
2022-08-25T21:24:28.236Z,6.68
2022-08-25T21:26:57.354Z,6.90
2022-08-25T21:29:26.040Z,6.72
2022-08-25T21:31:56.496Z,6.88
2022-08-25T21:34:23.511Z,6.38
2022-08-25T21:36:51.042Z,6.90
2022-08-25T21:39:17.833Z,6.90
2022-08-25T21:41:45.484Z,7.43
2022-08-25T21:44:13.827Z,7.57
2022-08-25T21:46:41.421Z,6.70
2022-08-25T21:49:09.051Z,7.00
2022-08-25T21:51:42.538Z,7.60
2022-08-25T21:54:13.347Z,7.40
2022-08-25T21:56:55.074Z,6.95
2022-08-25T21:59:27.059Z,8.27
2022-08-25T22:01:59.210Z,7.55
2022-08-25T22:04:27.828Z,7.10
2022-08-25T22:06:54.777Z,7.65
2022-08-25T22:09:25.087Z,7.15
2022-08-25T22:11:54.714Z,8.02
2022-08-25T22:14:23.372Z,7.95
2022-08-25T22:16:52.002Z,8.10
2022-08-25T22:19:18.992Z,7.60
2022-08-25T22:21:46.080Z,8.00
2022-08-25T22:24:13.198Z,7.63
2022-08-25T22:26:40.450Z,7.60
2022-08-25T22:29:07.803Z,7.22
2022-08-25T22:31:35.315Z,7.65
2022-08-25T22:34:03.193Z,7.13
2022-08-25T22:36:34.907Z,7.90
2022-08-25T22:39:03.348Z,7.47
2022-08-25T22:41:31.531Z,7.45
2022-08-25T22:44:00.446Z,7.13
2022-08-25T22:46:32.852Z,7.95
2022-08-25T22:49:00.376Z,6.97
2022-08-25T22:51:31.445Z,7.82
2022-08-25T22:53:59.642Z,7.45
2022-08-25T22:56:31.845Z,8.25
2022-08-25T22:59:05.386Z,7.40
2022-08-25T23:01:33.044Z,6.97
2022-08-25T23:04:01.972Z,8.27
2022-08-25T23:06:29.572Z,7.40
2022-08-25T23:08:56.902Z,7.63
2022-08-25T23:11:24.946Z,7.90
2022-08-25T23:13:55.363Z,7.57
2022-08-25T23:16:22.280Z,7.70
2022-08-25T23:18:49.557Z,7.50
2022-08-25T23:21:38.185Z,8.18
2022-08-25T23:24:10.695Z,7.60
2022-08-25T23:26:42.480Z,7.93
2022-08-25T23:29:18.122Z,7.50
2022-08-25T23:31:47.728Z,7.85
2022-08-25T23:34:16.055Z,7.88
2022-08-25T23:36:43.891Z,8.10
2022-08-25T23:39:11.654Z,7.68
2022-08-25T23:41:39.022Z,7.65
2022-08-25T23:44:06.765Z,8.25
2022-08-25T23:46:36.243Z,7.53
2022-08-25T23:49:05.171Z,7.57
2022-08-25T23:51:37.995Z,7.38
2022-08-25T23:54:09.585Z,7.38
2022-08-25T23:56:42.288Z,7.30
2022-08-25T23:59:13.130Z,7.35
